Time;durP1;ratioP1;P1;durP2;ratioP2;P2;SDS_P1;SDS_P2;PMS_P1;PMS_P2;Temp;Humidity;BMP_temperature;BMP_pressure;BME280_temperature;BME280_humidity;BME280_pressure;Samples;Min_cycle;Max_cycle;Signal;HPM_P1;HPM_P2
2023/03/26 00:01:20;;;;;;;1.08;0.60;;;9.60;80.00;;;;;;5052781;28;20025;-64
2023/03/26 00:03:52;;;;;;;1.10;0.68;;;9.60;80.10;;;;;;5052210;28;20034;-65
2023/03/26 00:06:18;;;;;;;1.15;0.65;;;9.60;80.00;;;;;;5052622;28;20063;-64
2023/03/26 00:08:44;;;;;;;0.90;0.68;;;9.60;80.00;;;;;;5052255;28;20029;-64
2023/03/26 00:11:13;;;;;;;1.23;0.85;;;9.70;80.00;;;;;;5052525;28;20036;-64
2023/03/26 00:13:40;;;;;;;1.67;0.65;;;9.70;79.70;;;;;;5052065;28;20021;-64
2023/03/26 00:16:06;;;;;;;1.92;0.80;;;9.70;79.60;;;;;;5052588;28;20107;-64
2023/03/26 00:18:33;;;;;;;1.88;0.90;;;9.70;79.60;;;;;;5052443;28;20067;-63
2023/03/26 00:21:01;;;;;;;1.20;0.70;;;9.70;79.70;;;;;;5052080;28;20060;-64
2023/03/26 00:23:29;;;;;;;1.00;0.60;;;9.70;79.80;;;;;;5052498;28;20028;-65
2023/03/26 00:25:55;;;;;;;1.63;0.75;;;9.70;79.70;;;;;;5052126;28;20029;-65
2023/03/26 00:28:21;;;;;;;1.77;0.80;;;9.70;79.60;;;;;;5051609;28;20025;-65
2023/03/26 00:30:58;;;;;;;1.85;0.80;;;9.70;79.70;;;;;;5053314;28;20040;-64
2023/03/26 00:33:23;;;;;;;1.63;0.70;;;9.70;79.70;;;;;;5056254;28;20021;-64
2023/03/26 00:35:52;;;;;;;2.60;0.70;;;9.70;79.60;;;;;;5057804;28;20040;-65
2023/03/26 00:38:19;;;;;;;3.25;0.80;;;9.70;79.40;;;;;;5057725;28;20052;-64
2023/03/26 00:40:46;;;;;;;2.42;0.73;;;9.70;79.40;;;;;;5054708;28;20029;-65
2023/03/26 00:43:19;;;;;;;1.98;0.80;;;9.80;79.40;;;;;;5052372;28;20143;-64
2023/03/26 00:45:50;;;;;;;2.00;0.68;;;9.70;79.40;;;;;;5052703;28;20029;-64
2023/03/26 00:48:17;;;;;;;2.47;0.60;;;9.70;79.30;;;;;;5052372;28;20113;-63
2023/03/26 00:50:45;;;;;;;2.83;0.80;;;9.80;79.20;;;;;;5051993;28;20036;-64
2023/03/26 00:53:12;;;;;;;2.30;0.80;;;9.80;79.00;;;;;;5052009;28;20432;-63
2023/03/26 00:55:42;;;;;;;1.92;0.80;;;9.80;79.10;;;;;;5052232;28;20036;-64
2023/03/26 00:58:11;;;;;;;2.70;0.70;;;9.80;78.90;;;;;;5051810;28;20025;-64
2023/03/26 01:00:49;;;;;;;3.33;0.70;;;9.80;78.80;;;;;;5052251;28;20025;-64
2023/03/26 01:03:17;;;;;;;2.90;0.98;;;9.80;78.60;;;;;;5052156;28;20470;-64
2023/03/26 01:05:51;;;;;;;3.30;0.70;;;9.90;78.60;;;;;;5052059;28;20488;-64
2023/03/26 01:08:46;;;;;;;1.25;0.70;;;9.90;78.40;;;;;;5051967;28;20032;-63
2023/03/26 01:11:19;;;;;;;1.58;0.70;;;9.90;78.50;;;;;;5051910;28;20033;-64
2023/03/26 01:14:14;;;;;;;1.83;0.75;;;9.90;78.30;;;;;;5052044;28;20025;-67
2023/03/26 01:16:50;;;;;;;0.80;0.70;;;9.90;78.20;;;;;;5050731;28;20041;-65
2023/03/26 01:19:47;;;;;;;1.75;0.70;;;9.90;78.30;;;;;;5052090;28;20049;-64
2023/03/26 01:22:19;;;;;;;1.05;0.75;;;9.90;78.30;;;;;;5051907;28;20029;-63
2023/03/26 01:24:51;;;;;;;1.33;0.63;;;9.90;78.10;;;;;;5054726;28;20047;-64
2023/03/26 01:27:17;;;;;;;1.23;0.73;;;9.90;78.30;;;;;;5055797;28;20029;-64
2023/03/26 01:30:05;;;;;;;1.00;0.60;;;9.90;78.40;;;;;;5055035;28;20052;-64
2023/03/26 01:32:49;;;;;;;1.52;0.70;;;9.90;78.50;;;;;;5043832;28;20048;-63
2023/03/26 01:35:36;;;;;;;1.40;0.80;;;9.90;78.20;;;;;;5055498;28;20036;-64
2023/03/26 01:38:27;;;;;;;3.05;0.68;;;9.90;78.00;;;;;;5055147;28;20021;-63
2023/03/26 01:41:15;;;;;;;1.27;0.73;;;10.00;77.80;;;;;;5054971;28;20029;-64
2023/03/26 01:44:10;;;;;;;2.05;0.70;;;10.00;77.70;;;;;;5055207;28;20068;-63
2023/03/26 01:46:36;;;;;;;1.75;0.80;;;10.00;77.70;;;;;;5055109;28;20075;-63
2023/03/26 01:49:04;;;;;;;1.95;0.70;;;10.00;77.60;;;;;;5054850;28;20025;-64
2023/03/26 01:51:34;;;;;;;2.28;0.80;;;10.00;77.70;;;;;;5055039;28;20036;-65
2023/03/26 01:54:04;;;;;;;3.20;0.80;;;10.00;77.70;;;;;;5053677;28;20029;-63
2023/03/26 01:56:48;;;;;;;1.88;0.70;;;10.00;77.80;;;;;;5055208;28;20482;-62
2023/03/26 01:59:39;;;;;;;3.72;0.98;;;10.00;77.80;;;;;;5054744;28;20097;-64
2023/03/26 02:02:29;;;;;;;2.60;0.80;;;10.00;78.10;;;;;;5054453;28;20095;-65
2023/03/26 02:05:04;;;;;;;2.03;0.90;;;10.00;77.70;;;;;;5054560;28;20021;-65
2023/03/26 02:07:40;;;;;;;2.95;1.05;;;10.00;78.00;;;;;;5054763;28;20024;-63
2023/03/26 02:10:16;;;;;;;3.80;0.93;;;10.00;78.00;;;;;;5054482;28;20074;-64
2023/03/26 02:12:43;;;;;;;2.45;0.98;;;10.10;78.10;;;;;;5054620;28;20033;-63
2023/03/26 02:15:10;;;;;;;3.60;1.00;;;10.10;77.90;;;;;;5054473;28;20052;-63
2023/03/26 02:17:39;;;;;;;2.50;0.98;;;10.10;78.10;;;;;;5053413;28;20354;-63
2023/03/26 02:20:08;;;;;;;2.33;0.98;;;10.10;78.30;;;;;;5054233;28;20108;-64
2023/03/26 02:22:39;;;;;;;2.05;0.80;;;10.10;78.40;;;;;;5054573;28;20147;-63
2023/03/26 02:25:07;;;;;;;1.98;1.08;;;10.10;79.00;;;;;;5054277;28;20028;-63
2023/03/26 02:27:33;;;;;;;2.20;0.90;;;10.00;78.70;;;;;;5053358;28;20115;-63
2023/03/26 02:29:58;;;;;;;1.20;0.70;;;10.00;78.90;;;;;;5053958;28;20572;-63
2023/03/26 02:32:24;;;;;;;3.20;1.05;;;10.00;79.30;;;;;;5054215;28;20040;-63
2023/03/26 02:34:50;;;;;;;2.40;0.77;;;10.00;79.40;;;;;;5053590;28;20078;-63
2023/03/26 02:37:17;;;;;;;2.20;0.90;;;9.90;79.70;;;;;;5053887;28;20110;-63
2023/03/26 02:39:43;;;;;;;1.88;0.68;;;9.90;80.00;;;;;;5054448;28;20488;-64
2023/03/26 02:42:09;;;;;;;3.58;0.85;;;9.90;80.10;;;;;;5053752;28;20033;-63
2023/03/26 02:44:35;;;;;;;3.47;0.90;;;10.00;80.10;;;;;;5053866;28;20060;-63
2023/03/26 02:47:00;;;;;;;2.05;0.70;;;10.00;80.10;;;;;;5053736;28;20031;-65
2023/03/26 02:49:26;;;;;;;1.95;0.98;;;10.00;80.10;;;;;;5054271;28;20056;-64
2023/03/26 02:51:55;;;;;;;3.33;0.90;;;10.00;80.40;;;;;;5053228;28;20039;-64
2023/03/26 02:54:21;;;;;;;3.83;1.00;;;9.90;80.60;;;;;;5053900;28;20025;-65
2023/03/26 02:56:46;;;;;;;3.08;0.90;;;9.90;80.70;;;;;;5053903;28;20032;-63
2023/03/26 02:59:13;;;;;;;3.45;1.08;;;9.90;80.80;;;;;;5053287;28;20385;-65
2023/03/26 03:01:41;;;;;;;4.22;0.60;;;9.90;80.90;;;;;;5054042;28;20467;-65
2023/03/26 03:04:11;;;;;;;3.83;1.13;;;9.90;80.60;;;;;;5053366;28;20056;-64
2023/03/26 03:06:39;;;;;;;3.70;1.08;;;9.90;80.60;;;;;;5053749;28;20036;-65
2023/03/26 03:09:05;;;;;;;2.30;1.00;;;9.90;80.50;;;;;;5053259;28;20104;-65
2023/03/26 03:11:31;;;;;;;2.58;0.82;;;9.90;80.30;;;;;;5053544;28;20065;-64
2023/03/26 03:13:56;;;;;;;3.13;1.02;;;9.90;80.40;;;;;;5053298;28;20152;-68
2023/03/26 03:16:22;;;;;;;2.55;1.00;;;9.90;80.20;;;;;;5053465;28;20036;-65
2023/03/26 03:18:53;;;;;;;3.35;1.10;;;9.90;80.30;;;;;;5053472;28;20025;-65
2023/03/26 03:21:19;;;;;;;3.17;0.80;;;9.90;80.80;;;;;;5052943;28;20086;-65
2023/03/26 03:23:45;;;;;;;2.85;1.15;;;9.90;80.60;;;;;;5053462;28;20257;-65
2023/03/26 03:26:20;;;;;;;4.88;1.13;;;9.90;80.70;;;;;;5052984;28;20029;-65
2023/03/26 03:28:49;;;;;;;4.90;1.00;;;9.90;81.00;;;;;;5053230;28;20120;-65
2023/03/26 03:31:16;;;;;;;3.85;1.10;;;9.90;81.10;;;;;;5052945;28;20060;-65
2023/03/26 03:33:45;;;;;;;2.90;1.10;;;9.90;81.20;;;;;;5053391;28;20040;-65
2023/03/26 03:36:12;;;;;;;1.38;0.80;;;9.90;81.30;;;;;;5052351;28;20029;-63
2023/03/26 03:38:39;;;;;;;3.67;1.15;;;9.90;81.20;;;;;;5053209;28;20029;-63
2023/03/26 03:41:05;;;;;;;3.03;0.95;;;9.90;81.20;;;;;;5052967;28;20083;-64
2023/03/26 03:43:31;;;;;;;3.85;0.90;;;9.90;81.30;;;;;;5053068;28;20045;-63
2023/03/26 03:45:58;;;;;;;1.52;0.98;;;9.90;81.30;;;;;;5053361;28;20028;-65
2023/03/26 03:48:24;;;;;;;1.70;0.80;;;9.90;81.40;;;;;;5053281;28;20113;-65
2023/03/26 03:50:50;;;;;;;4.53;1.02;;;9.90;81.40;;;;;;5053811;28;20052;-65
2023/03/26 03:53:17;;;;;;;4.90;1.40;;;9.90;81.40;;;;;;5055288;28;20037;-65
2023/03/26 03:55:51;;;;;;;4.40;1.05;;;9.90;81.50;;;;;;5056897;28;20025;-65
2023/03/26 03:58:27;;;;;;;1.33;0.70;;;9.90;81.30;;;;;;5053962;28;20427;-64
2023/03/26 04:00:59;;;;;;;2.10;1.00;;;9.90;81.90;;;;;;5055011;28;20044;-64
2023/03/26 04:03:27;;;;;;;4.55;1.20;;;9.90;81.20;;;;;;5052813;28;20542;-64
2023/03/26 04:05:53;;;;;;;2.92;0.85;;;9.90;81.30;;;;;;5052853;28;20036;-64
2023/03/26 04:08:23;;;;;;;3.33;0.85;;;9.90;80.90;;;;;;5052180;28;20024;-64
2023/03/26 04:10:49;;;;;;;2.00;0.90;;;9.90;80.80;;;;;;5052524;28;20052;-64
2023/03/26 04:13:16;;;;;;;2.55;0.80;;;10.00;80.70;;;;;;5052267;28;20119;-64
2023/03/26 04:15:42;;;;;;;1.27;0.80;;;9.90;80.70;;;;;;5052659;28;20032;-64
2023/03/26 04:18:11;;;;;;;2.97;0.80;;;9.90;80.60;;;;;;5051028;28;20029;-64
2023/03/26 04:20:40;;;;;;;3.72;1.00;;;9.90;80.30;;;;;;5052646;28;20048;-64
2023/03/26 04:23:07;;;;;;;3.47;0.73;;;10.00;80.20;;;;;;5052189;28;20069;-64
2023/03/26 04:25:35;;;;;;;3.10;0.73;;;10.00;80.20;;;;;;5052638;28;20116;-65
2023/03/26 04:28:05;;;;;;;1.63;0.80;;;9.90;80.00;;;;;;5052324;28;20025;-66
2023/03/26 04:30:32;;;;;;;1.83;0.85;;;10.00;79.60;;;;;;5052897;28;20384;-64
2023/03/26 04:33:05;;;;;;;3.53;0.70;;;10.00;79.60;;;;;;5052335;28;20439;-64
2023/03/26 04:35:34;;;;;;;3.88;1.10;;;10.00;79.30;;;;;;5052660;28;20497;-64
2023/03/26 04:38:05;;;;;;;4.05;0.85;;;10.00;79.40;;;;;;5052428;28;20381;-64
2023/03/26 04:40:33;;;;;;;3.17;0.90;;;10.00;79.40;;;;;;5052678;28;20063;-64
2023/03/26 04:43:02;;;;;;;1.30;0.65;;;10.00;79.30;;;;;;5050992;28;20084;-64
2023/03/26 04:45:30;;;;;;;2.28;0.95;;;10.00;79.10;;;;;;5052038;28;20025;-64
2023/03/26 04:47:59;;;;;;;1.75;0.77;;;10.00;78.90;;;;;;5052270;28;20029;-64
2023/03/26 04:50:25;;;;;;;2.88;1.10;;;10.00;78.90;;;;;;5051465;28;20184;-64
2023/03/26 04:52:53;;;;;;;5.50;1.45;;;10.00;79.00;;;;;;5051626;28;20083;-64
2023/03/26 04:55:28;;;;;;;4.68;1.40;;;10.00;78.90;;;;;;5051834;28;20029;-65
2023/03/26 04:57:58;;;;;;;2.72;1.38;;;10.00;78.90;;;;;;5052214;28;20033;-64
2023/03/26 05:00:24;;;;;;;2.10;0.80;;;10.00;78.90;;;;;;5055779;28;20055;-64
2023/03/26 05:02:54;;;;;;;2.13;1.10;;;10.00;78.80;;;;;;5056186;28;20434;-64
2023/03/26 05:05:20;;;;;;;3.03;0.98;;;10.00;78.80;;;;;;5055702;28;20470;-64
2023/03/26 05:07:46;;;;;;;2.92;0.90;;;10.00;78.40;;;;;;5056077;28;20067;-64
2023/03/26 05:10:13;;;;;;;1.88;0.80;;;10.10;78.20;;;;;;5055363;28;20490;-64
2023/03/26 05:12:40;;;;;;;2.95;1.05;;;10.10;77.50;;;;;;5055913;28;20159;-64
2023/03/26 05:15:07;;;;;;;3.45;1.05;;;10.20;77.50;;;;;;5055457;28;20417;-64
2023/03/26 05:17:33;;;;;;;5.47;1.10;;;10.20;77.30;;;;;;5054313;28;20108;-64
2023/03/26 05:20:00;;;;;;;3.22;1.00;;;10.20;77.10;;;;;;5054228;28;20028;-65
2023/03/26 05:22:26;;;;;;;4.57;1.00;;;10.30;77.60;;;;;;5055399;28;20487;-64
2023/03/26 05:24:51;;;;;;;3.58;0.82;;;10.20;76.90;;;;;;5054730;28;20111;-64
2023/03/26 05:27:20;;;;;;;3.05;0.95;;;10.30;76.90;;;;;;5055620;28;20488;-64
2023/03/26 05:29:46;;;;;;;1.75;0.70;;;10.30;76.90;;;;;;5055649;28;20029;-64
2023/03/26 05:32:12;;;;;;;3.63;1.30;;;10.30;77.00;;;;;;5055115;28;20163;-64
2023/03/26 05:34:38;;;;;;;3.72;0.95;;;10.30;77.00;;;;;;5054624;28;20017;-64
2023/03/26 05:37:05;;;;;;;5.10;1.23;;;10.30;76.70;;;;;;5054447;28;20424;-63
2023/03/26 05:39:31;;;;;;;2.28;0.90;;;10.40;77.00;;;;;;5053601;28;20063;-64
2023/03/26 05:41:57;;;;;;;2.83;0.90;;;10.40;76.90;;;;;;5055160;28;20052;-65
2023/03/26 05:44:23;;;;;;;3.72;0.77;;;10.40;76.50;;;;;;5052718;28;20493;-64
2023/03/26 05:46:49;;;;;;;3.25;1.13;;;10.40;77.10;;;;;;5053512;28;20029;-64
2023/03/26 05:49:14;;;;;;;2.22;0.82;;;10.40;76.30;;;;;;5052957;28;20045;-64
2023/03/26 05:51:40;;;;;;;3.60;0.90;;;10.50;76.40;;;;;;5053481;28;20500;-64
2023/03/26 05:54:06;;;;;;;3.13;0.90;;;10.50;76.50;;;;;;5053680;28;20025;-64
2023/03/26 05:56:31;;;;;;;3.03;1.20;;;10.60;76.10;;;;;;5054356;28;20021;-64
2023/03/26 05:58:57;;;;;;;3.35;0.98;;;10.70;75.90;;;;;;5052978;28;20028;-64
2023/03/26 06:01:24;;;;;;;4.78;1.05;;;10.70;75.50;;;;;;5052803;28;20037;-65
2023/03/26 06:03:50;;;;;;;4.97;1.02;;;10.80;75.20;;;;;;5053038;28;20111;-65
2023/03/26 06:06:18;;;;;;;2.17;1.08;;;10.90;75.30;;;;;;5051092;28;20080;-64
2023/03/26 06:08:50;;;;;;;6.10;1.23;;;10.90;74.90;;;;;;5054160;28;20037;-64
2023/03/26 06:11:18;;;;;;;3.78;1.10;;;10.90;74.80;;;;;;5052981;28;20479;-63
2023/03/26 06:13:45;;;;;;;1.92;1.15;;;11.10;75.00;;;;;;5054941;28;20373;-63
2023/03/26 06:16:12;;;;;;;4.28;1.20;;;11.20;74.60;;;;;;5054559;28;20044;-67
2023/03/26 06:18:38;;;;;;;2.70;1.10;;;11.20;74.50;;;;;;5054053;28;20040;-65
2023/03/26 06:21:05;;;;;;;2.20;1.25;;;11.30;74.40;;;;;;5054181;28;20042;-65
2023/03/26 06:23:32;;;;;;;3.58;1.10;;;11.30;74.10;;;;;;5052513;28;20037;-64
2023/03/26 06:25:58;;;;;;;4.25;1.20;;;11.30;74.10;;;;;;5053810;28;20017;-63
2023/03/26 06:28:24;;;;;;;2.72;0.95;;;11.40;74.10;;;;;;5053298;28;20021;-65
2023/03/26 06:30:50;;;;;;;4.30;1.65;;;11.40;73.80;;;;;;5053944;28;20021;-63
2023/03/26 06:33:16;;;;;;;4.40;1.10;;;11.40;73.70;;;;;;5053038;28;20490;-63
2023/03/26 06:35:43;;;;;;;4.40;1.40;;;11.40;74.10;;;;;;5053726;28;20031;-64
2023/03/26 06:38:08;;;;;;;4.70;1.50;;;11.40;73.90;;;;;;5051321;28;20354;-64
2023/03/26 06:40:34;;;;;;;5.60;1.40;;;11.40;73.70;;;;;;5053035;28;20013;-65
2023/03/26 06:43:00;;;;;;;3.33;1.00;;;11.40;73.50;;;;;;5053010;28;20041;-63
2023/03/26 06:45:31;;;;;;;3.15;1.20;;;11.40;73.90;;;;;;5053586;28;20115;-63
2023/03/26 06:47:56;;;;;;;2.40;1.27;;;11.40;74.00;;;;;;5054476;28;20032;-63
2023/03/26 06:50:22;;;;;;;3.67;1.10;;;11.50;74.30;;;;;;5053699;28;20037;-64
2023/03/26 06:52:49;;;;;;;4.70;1.58;;;11.60;74.20;;;;;;5053770;28;20116;-63
2023/03/26 06:55:15;;;;;;;2.00;0.95;;;11.80;74.00;;;;;;5053597;28;20111;-64
2023/03/26 06:57:44;;;;;;;5.47;1.27;;;12.00;73.90;;;;;;5053809;28;20399;-63
2023/03/26 07:00:10;;;;;;;3.88;1.30;;;12.20;72.90;;;;;;5053594;28;20363;-63
2023/03/26 07:02:36;;;;;;;2.10;1.17;;;12.30;71.80;;;;;;5053407;28;20040;-65
2023/03/26 07:05:02;;;;;;;4.47;1.13;;;12.50;70.50;;;;;;5053927;28;20458;-63
2023/03/26 07:07:27;;;;;;;3.30;1.25;;;12.70;69.50;;;;;;5053385;28;20063;-64
2023/03/26 07:09:53;;;;;;;4.15;1.23;;;13.00;69.50;;;;;;5053807;28;20520;-63
2023/03/26 07:12:19;;;;;;;4.63;1.45;;;13.30;68.80;;;;;;5052859;28;20044;-64
2023/03/26 07:14:44;;;;;;;4.75;1.42;;;13.60;66.50;;;;;;5053738;28;20394;-64
2023/03/26 07:17:10;;;;;;;2.03;0.75;;;14.00;65.40;;;;;;5053621;28;20449;-64
2023/03/26 07:19:36;;;;;;;2.53;1.10;;;14.40;64.20;;;;;;5052926;28;20036;-64
2023/03/26 07:22:02;;;;;;;6.25;1.33;;;14.90;62.60;;;;;;5052988;28;20028;-64
2023/03/26 07:24:27;;;;;;;3.15;1.00;;;15.40;61.10;;;;;;5052967;28;20036;-63
2023/03/26 07:27:32;;;;;;;2.95;0.98;;;16.00;58.60;;;;;;5053058;28;20381;-63
2023/03/26 07:30:02;;;;;;;3.53;1.10;;;17.00;55.40;;;;;;5052117;28;20401;-64
2023/03/26 07:32:57;;;;;;;3.20;1.33;;;17.60;54.20;;;;;;5052678;28;20029;-64
2023/03/26 07:35:45;;;;;;;2.35;1.30;;;18.70;51.90;;;;;;5052805;28;20037;-64
2023/03/26 07:38:37;;;;;;;3.13;1.40;;;18.20;50.70;;;;;;5052825;28;20025;-63
2023/03/26 07:41:21;;;;;;;3.50;1.52;;;19.10;48.90;;;;;;5053231;28;20028;-64
2023/03/26 07:44:08;;;;;;;5.43;1.40;;;19.00;48.30;;;;;;5052608;28;20171;-63
2023/03/26 07:46:35;;;;;;;2.88;1.27;;;18.70;48.50;;;;;;5032674;28;20025;-63
2023/03/26 07:49:03;;;;;;;3.70;1.30;;;19.50;47.90;;;;;;5032972;28;20049;-63
2023/03/26 07:51:30;;;;;;;4.03;1.27;;;19.90;46.20;;;;;;5042117;28;20067;-63
2023/03/26 07:53:58;;;;;;;3.42;1.00;;;20.10;45.30;;;;;;5052980;28;20536;-64
2023/03/26 07:56:36;;;;;;;2.53;1.00;;;20.70;44.50;;;;;;5052702;28;20036;-63
2023/03/26 07:59:07;;;;;;;2.90;1.20;;;20.80;43.20;;;;;;5052974;28;20086;-64
2023/03/26 08:01:42;;;;;;;2.47;1.20;;;21.40;41.90;;;;;;5052497;28;20052;-64
2023/03/26 08:04:32;;;;;;;3.10;1.33;;;22.10;41.00;;;;;;5052736;28;20504;-64
2023/03/26 08:07:15;;;;;;;4.70;1.45;;;22.60;39.90;;;;;;5052605;28;20048;-64
2023/03/26 08:09:45;;;;;;;2.78;1.17;;;22.80;38.50;;;;;;5052076;28;20136;-63
2023/03/26 08:12:36;;;;;;;4.70;1.30;;;22.70;39.10;;;;;;5052596;28;20059;-64
2023/03/26 08:15:21;;;;;;;3.25;1.30;;;23.50;37.70;;;;;;5052529;28;20576;-64
2023/03/26 08:18:09;;;;;;;3.05;1.35;;;24.40;36.70;;;;;;5052984;28;20021;-64
2023/03/26 08:20:43;;;;;;;5.28;1.42;;;24.90;35.60;;;;;;5052651;28;20033;-64
2023/03/26 08:23:15;;;;;;;3.88;1.35;;;24.40;35.40;;;;;;5053213;28;20109;-63
2023/03/26 08:26:01;;;;;;;6.22;1.35;;;24.50;35.20;;;;;;5052252;28;20454;-64
2023/03/26 08:28:43;;;;;;;2.13;1.10;;;24.70;34.70;;;;;;5052240;28;20039;-65
2023/03/26 08:31:12;;;;;;;4.03;1.27;;;24.50;34.50;;;;;;5052550;28;20037;-63
2023/03/26 08:33:39;;;;;;;6.85;1.33;;;23.30;35.00;;;;;;5053480;28;20485;-62
2023/03/26 08:36:06;;;;;;;3.40;1.10;;;22.30;39.00;;;;;;5056555;28;20036;-65
2023/03/26 08:38:32;;;;;;;5.10;1.45;;;21.30;41.60;;;;;;5055880;28;20029;-65
2023/03/26 08:41:10;;;;;;;3.45;1.25;;;20.40;41.90;;;;;;5056341;28;20047;-64
2023/03/26 08:43:55;;;;;;;4.03;1.70;;;19.40;44.30;;;;;;5055889;28;20389;-64
2023/03/26 08:46:39;;;;;;;2.97;1.17;;;19.30;44.10;;;;;;5056453;28;20029;-63
2023/03/26 08:49:08;;;;;;;2.33;1.20;;;18.90;45.40;;;;;;5056312;28;20051;-65
2023/03/26 08:51:43;;;;;;;4.53;1.35;;;18.30;44.90;;;;;;5055473;28;20029;-64
2023/03/26 08:54:30;;;;;;;3.65;1.45;;;17.90;45.40;;;;;;5056628;28;20529;-65
2023/03/26 08:57:15;;;;;;;4.10;1.27;;;17.50;46.80;;;;;;5056106;28;20452;-65
2023/03/26 09:00:10;;;;;;;2.65;1.30;;;17.30;46.60;;;;;;5055755;28;20032;-63
2023/03/26 09:03:05;;;;;;;4.45;1.10;;;17.00;47.50;;;;;;5055325;28;20488;-67
2023/03/26 09:05:43;;;;;;;4.05;1.30;;;17.10;48.00;;;;;;5055581;28;20059;-64
2023/03/26 09:08:27;;;;;;;4.40;1.55;;;17.20;48.40;;;;;;5056034;28;20026;-63
2023/03/26 09:11:23;;;;;;;5.15;1.23;;;17.20;49.50;;;;;;5055728;28;20035;-62
2023/03/26 09:14:13;;;;;;;4.30;1.23;;;17.40;48.80;;;;;;5054191;28;20539;-63
2023/03/26 09:16:57;;;;;;;3.75;1.20;;;17.50;48.30;;;;;;5055224;28;20021;-63
2023/03/26 09:19:44;;;;;;;3.38;1.50;;;17.60;49.00;;;;;;5055924;28;20111;-64
2023/03/26 09:22:28;;;;;;;4.25;1.20;;;17.60;48.80;;;;;;5054429;28;20037;-64
2023/03/26 09:25:05;;;;;;;4.85;1.48;;;17.60;48.00;;;;;;5055624;28;20060;-64
2023/03/26 09:27:43;;;;;;;3.80;1.25;;;17.60;48.10;;;;;;5055239;28;20242;-64
2023/03/26 09:30:42;;;;;;;8.30;2.10;;;17.60;47.20;;;;;;5056871;28;20496;-64
2023/03/26 09:33:47;;;;;;;3.13;1.10;;;17.60;47.90;;;;;;5055875;28;20096;-64
2023/03/26 09:36:30;;;;;;;3.22;1.02;;;17.70;48.80;;;;;;5035917;28;20036;-63
2023/03/26 09:38:56;;;;;;;6.25;1.40;;;17.80;48.50;;;;;;5035668;28;20106;-64
2023/03/26 09:41:50;;;;;;;4.13;1.10;;;17.80;47.80;;;;;;5035298;28;20053;-66
2023/03/26 09:44:29;;;;;;;3.22;1.33;;;17.90;46.80;;;;;;5026680;28;20052;-64
2023/03/26 09:47:24;;;;;;;3.28;1.30;;;17.90;46.60;;;;;;5048300;28;20399;-65
2023/03/26 09:50:31;;;;;;;1.98;1.25;;;18.00;47.30;;;;;;5052780;28;20036;-64
2023/03/26 09:53:22;;;;;;;2.72;1.23;;;18.10;47.30;;;;;;5055183;28;20036;-64
2023/03/26 09:56:32;;;;;;;2.63;1.00;;;18.30;46.20;;;;;;5054440;28;20017;-64
2023/03/26 09:59:21;;;;;;;4.50;1.25;;;18.40;45.20;;;;;;5032539;28;20029;-64
2023/03/26 10:01:52;;;;;;;5.35;1.73;;;18.50;44.70;;;;;;5034676;28;20044;-64
2023/03/26 10:04:39;;;;;;;4.18;1.17;;;18.70;44.40;;;;;;5034925;28;20060;-64
2023/03/26 10:07:40;;;;;;;3.33;1.08;;;18.80;43.60;;;;;;5034784;28;20423;-63
2023/03/26 10:10:24;;;;;;;4.45;1.38;;;18.80;42.50;;;;;;5026281;28;20053;-63
2023/03/26 10:12:56;;;;;;;3.70;1.10;;;18.90;42.40;;;;;;5034403;28;20095;-63
2023/03/26 10:15:39;;;;;;;2.13;0.90;;;18.90;41.50;;;;;;5034416;28;20055;-64
2023/03/26 10:18:13;;;;;;;3.38;1.10;;;18.90;42.30;;;;;;5034654;28;20025;-63
2023/03/26 10:20:42;;;;;;;4.72;1.40;;;18.90;41.60;;;;;;5033930;28;20458;-63
2023/03/26 10:23:17;;;;;;;4.50;1.38;;;18.90;42.40;;;;;;5032789;28;20033;-64
2023/03/26 10:25:57;;;;;;;4.38;1.20;;;18.90;42.20;;;;;;5034049;28;20029;-64
2023/03/26 10:28:50;;;;;;;4.57;1.10;;;18.90;41.30;;;;;;5034641;28;20036;-64
2023/03/26 10:31:35;;;;;;;2.35;1.10;;;18.80;40.90;;;;;;5034240;28;20022;-65
2023/03/26 10:34:31;;;;;;;2.20;1.00;;;18.80;40.50;;;;;;5034430;28;20032;-63
2023/03/26 10:37:17;;;;;;;2.40;1.02;;;18.80;41.40;;;;;;5051837;28;20469;-64
2023/03/26 10:40:24;;;;;;;6.07;1.30;;;18.70;41.10;;;;;;5053258;28;20048;-66
2023/03/26 10:42:59;;;;;;;2.70;1.02;;;18.70;41.10;;;;;;5053283;28;20049;-65
2023/03/26 10:45:37;;;;;;;3.00;0.90;;;18.70;41.30;;;;;;5053569;28;20071;-65
2023/03/26 10:48:14;;;;;;;4.55;1.10;;;18.70;41.00;;;;;;5053868;28;20102;-65
2023/03/26 10:50:49;;;;;;;4.07;0.95;;;18.60;41.10;;;;;;5053673;28;20029;-65
2023/03/26 10:53:27;;;;;;;4.43;1.05;;;18.60;40.90;;;;;;5053318;28;20440;-65
2023/03/26 10:56:21;;;;;;;1.45;0.70;;;18.50;40.70;;;;;;5052466;28;20037;-65
2023/03/26 10:58:47;;;;;;;2.88;1.10;;;18.40;40.60;;;;;;5046307;28;20037;-65
2023/03/26 11:01:40;;;;;;;1.95;0.98;;;18.20;41.60;;;;;;5053408;28;20040;-65
2023/03/26 11:04:31;;;;;;;3.17;1.20;;;18.10;41.90;;;;;;5053633;28;20021;-65
2023/03/26 11:07:21;;;;;;;2.25;1.27;;;18.00;42.50;;;;;;5052798;28;20025;-65
2023/03/26 11:10:00;;;;;;;2.92;1.17;;;17.90;42.80;;;;;;5053273;28;20021;-63
2023/03/26 11:12:50;;;;;;;1.85;0.73;;;17.90;42.10;;;;;;5052316;28;20044;-65
2023/03/26 11:15:24;;;;;;;2.88;1.35;;;17.90;41.90;;;;;;5053478;28;20480;-65
2023/03/26 11:18:09;;;;;;;2.67;0.90;;;17.70;41.10;;;;;;5052869;28;20466;-65
2023/03/26 11:20:56;;;;;;;3.28;0.90;;;17.80;41.80;;;;;;5053031;28;20029;-69
2023/03/26 11:24:08;;;;;;;2.35;0.95;;;17.90;40.80;;;;;;5053009;28;20037;-66
2023/03/26 11:26:59;;;;;;;3.75;0.82;;;17.90;40.80;;;;;;5033473;28;20041;-65
2023/03/26 11:29:35;;;;;;;;;;;17.90;40.90;;;;;;5053458;28;20412;-65
2023/03/26 11:32:22;;;;;;;2.70;0.90;;;17.90;41.00;;;;;;5052949;28;19920;-65
2023/03/26 11:35:19;;;;;;;2.55;0.90;;;17.90;41.00;;;;;;5052687;28;20465;-65
2023/03/26 11:37:57;;;;;;;5.95;1.60;;;18.00;41.40;;;;;;5052122;28;20051;-64
2023/03/26 11:40:32;;;;;;;3.22;1.20;;;18.00;41.60;;;;;;5053005;28;20032;-64
2023/03/26 11:43:02;;;;;;;1.85;1.10;;;18.10;40.70;;;;;;5052221;28;20049;-65
2023/03/26 11:45:35;;;;;;;1.43;0.70;;;18.10;40.70;;;;;;5052899;28;20108;-65
2023/03/26 11:48:09;;;;;;;2.30;0.75;;;18.10;39.60;;;;;;5052711;28;20253;-64
2023/03/26 11:50:41;;;;;;;2.50;0.90;;;18.10;39.60;;;;;;5052547;28;20043;-66
2023/03/26 11:53:13;;;;;;;3.35;1.00;;;18.20;39.80;;;;;;5052661;28;20116;-65
2023/03/26 11:56:08;;;;;;;2.17;1.00;;;18.20;39.30;;;;;;5052339;28;20122;-65
2023/03/26 11:58:54;;;;;;;2.78;0.70;;;18.20;38.90;;;;;;5052591;28;20059;-64
2023/03/26 12:01:40;;;;;;;2.75;0.85;;;18.20;39.10;;;;;;5052532;28;20024;-65
2023/03/26 12:04:14;;;;;;;3.00;0.90;;;18.20;39.00;;;;;;5053155;28;20104;-65
2023/03/26 12:07:30;;;;;;;6.10;1.10;;;18.10;38.40;;;;;;5052281;28;20369;-65
2023/03/26 12:10:06;;;;;;;3.28;0.90;;;17.90;38.50;;;;;;5045824;28;20393;-66
2023/03/26 12:12:37;;;;;;;2.05;0.70;;;17.90;39.10;;;;;;5051295;28;20115;-65
2023/03/26 12:15:11;;;;;;;3.22;0.70;;;17.80;38.70;;;;;;5052663;28;20118;-64
2023/03/26 12:17:41;;;;;;;1.80;0.90;;;17.80;39.00;;;;;;5052380;28;20029;-64
2023/03/26 12:20:25;;;;;;;1.55;0.75;;;17.70;39.00;;;;;;5051004;28;20119;-65
2023/03/26 12:22:59;;;;;;;1.70;1.10;;;17.70;39.00;;;;;;5051688;28;20496;-65
2023/03/26 12:25:29;;;;;;;1.35;0.65;;;17.70;38.80;;;;;;5051988;28;20383;-65
2023/03/26 12:28:02;;;;;;;2.10;0.90;;;17.70;38.70;;;;;;5050059;28;20363;-65
2023/03/26 12:30:33;;;;;;;1.90;0.90;;;17.70;38.80;;;;;;5050468;28;20069;-65
2023/03/26 12:33:03;;;;;;;1.85;1.00;;;17.80;39.00;;;;;;5051050;28;20626;-66
2023/03/26 12:35:33;;;;;;;1.73;0.90;;;17.70;38.80;;;;;;5051868;28;20480;-65
2023/03/26 12:38:22;;;;;;;0.70;0.55;;;17.70;39.10;;;;;;5051758;28;20033;-65
2023/03/26 12:41:07;;;;;;;1.42;0.70;;;17.70;39.00;;;;;;5051328;28;20086;-65
2023/03/26 12:43:52;;;;;;;1.35;0.60;;;17.70;37.70;;;;;;5049483;28;20053;-65
2023/03/26 12:46:33;;;;;;;1.73;0.80;;;17.70;37.60;;;;;;5050497;28;20095;-65
2023/03/26 12:49:04;;;;;;;0.95;0.65;;;17.70;37.30;;;;;;5047199;28;20362;-64
2023/03/26 12:51:50;;;;;;;0.90;0.70;;;17.70;37.90;;;;;;5051961;28;20377;-65
2023/03/26 12:54:28;;;;;;;2.95;0.90;;;17.70;37.70;;;;;;5049992;28;20564;-65
2023/03/26 12:57:09;;;;;;;2.28;1.00;;;17.80;38.00;;;;;;5051788;28;20425;-64
2023/03/26 12:59:38;;;;;;;;;;;17.70;37.50;;;;;;5052518;28;20108;-64
2023/03/26 13:02:34;;;;;;;1.02;0.73;;;17.80;38.20;;;;;;5051117;28;19920;-64
2023/03/26 13:05:19;;;;;;;0.70;0.40;;;17.80;37.90;;;;;;5051197;28;20036;-65
2023/03/26 13:07:59;;;;;;;0.52;0.45;;;17.80;36.00;;;;;;5051788;28;20053;-64
2023/03/26 13:10:46;;;;;;;0.90;0.73;;;17.80;35.70;;;;;;5052087;28;20051;-64
2023/03/26 13:13:44;;;;;;;3.15;0.77;;;17.70;35.90;;;;;;5051906;28;20045;-65
2023/03/26 13:16:28;;;;;;;1.88;0.65;;;17.80;36.20;;;;;;5041237;28;20033;-65
2023/03/26 13:19:19;;;;;;;0.93;0.63;;;17.80;37.00;;;;;;5051366;28;20051;-65
2023/03/26 13:22:27;;;;;;;1.05;0.52;;;17.80;36.80;;;;;;5055236;28;20507;-65
2023/03/26 13:25:16;;;;;;;2.15;0.50;;;17.80;36.40;;;;;;5044342;28;20037;-64
2023/03/26 13:28:00;;;;;;;0.75;0.60;;;17.80;36.60;;;;;;5055762;28;20082;-65
2023/03/26 13:30:52;;;;;;;1.27;0.50;;;17.70;36.50;;;;;;5055637;28;20025;-64